sensor_id;sensor_type;location;lat;lon;timestamp;pressure;altitude;pressure_sealevel;temperature;humidity
57900;BME280;60605;53.716;19.940;2023-04-09T00:01:30;101228.70;;;5.78;99.08
57900;BME280;60605;53.716;19.940;2023-04-09T00:06:32;101225.31;;;5.67;99.65
57900;BME280;60605;53.716;19.940;2023-04-09T00:11:34;101224.23;;;5.57;99.97
57900;BME280;60605;53.716;19.940;2023-04-09T00:16:36;101223.96;;;5.47;100.00
57900;BME280;60605;53.716;19.940;2023-04-09T00:21:38;101222.90;;;5.38;100.00
57900;BME280;60605;53.716;19.940;2023-04-09T00:26:40;101219.42;;;5.32;100.00
57900;BME280;60605;53.716;19.940;2023-04-09T00:31:42;101220.13;;;5.26;100.00
57900;BME280;60605;53.716;19.940;2023-04-09T00:36:44;101220.32;;;5.20;100.00
57900;BME280;60605;53.716;19.940;2023-04-09T00:41:46;101219.95;;;5.15;100.00
57900;BME280;60605;53.716;19.940;2023-04-09T00:46:48;101220.63;;;5.07;100.00
57900;BME280;60605;53.716;19.940;2023-04-09T00:51:51;101217.30;;;4.98;100.00
57900;BME280;60605;53.716;19.940;2023-04-09T00:56:54;101218.46;;;4.88;100.00
57900;BME280;60605;53.716;19.940;2023-04-09T01:01:57;101222.27;;;4.78;100.00
57900;BME280;60605;53.716;19.940;2023-04-09T01:18:05;101231.77;;;4.49;100.00
57900;BME280;60605;53.716;19.940;2023-04-09T01:28:20;101234.67;;;4.36;100.00
57900;BME280;60605;53.716;19.940;2023-04-09T01:33:24;101228.71;;;4.29;100.00
57900;BME280;60605;53.716;19.940;2023-04-09T01:38:27;101229.59;;;4.24;100.00
57900;BME280;60605;53.716;19.940;2023-04-09T01:43:30;101230.86;;;4.17;100.00
57900;BME280;60605;53.716;19.940;2023-04-09T01:48:34;101230.51;;;4.11;100.00
57900;BME280;60605;53.716;19.940;2023-04-09T01:53:36;101232.85;;;4.07;100.00
57900;BME280;60605;53.716;19.940;2023-04-09T01:58:38;101233.07;;;4.03;100.00
57900;BME280;60605;53.716;19.940;2023-04-09T02:03:51;101234.70;;;4.00;100.00
57900;BME280;60605;53.716;19.940;2023-04-09T02:08:57;101235.20;;;3.94;100.00
57900;BME280;60605;53.716;19.940;2023-04-09T02:14:02;101233.38;;;3.89;100.00
57900;BME280;60605;53.716;19.940;2023-04-09T02:19:04;101237.34;;;3.85;100.00
57900;BME280;60605;53.716;19.940;2023-04-09T02:24:06;101240.80;;;3.86;100.00
57900;BME280;60605;53.716;19.940;2023-04-09T02:29:08;101239.04;;;3.92;100.00
57900;BME280;60605;53.716;19.940;2023-04-09T02:34:09;101238.11;;;4.02;100.00
57900;BME280;60605;53.716;19.940;2023-04-09T02:39:11;101231.69;;;4.09;100.00
57900;BME280;60605;53.716;19.940;2023-04-09T02:44:14;101232.23;;;4.15;100.00
57900;BME280;60605;53.716;19.940;2023-04-09T02:49:15;101238.56;;;4.19;100.00
57900;BME280;60605;53.716;19.940;2023-04-09T02:54:17;101223.82;;;4.20;100.00
57900;BME280;60605;53.716;19.940;2023-04-09T02:59:19;101230.56;;;4.22;100.00
57900;BME280;60605;53.716;19.940;2023-04-09T03:04:21;101230.27;;;4.24;100.00
57900;BME280;60605;53.716;19.940;2023-04-09T03:09:23;101224.25;;;4.27;100.00
57900;BME280;60605;53.716;19.940;2023-04-09T03:14:25;101220.88;;;4.31;100.00
57900;BME280;60605;53.716;19.940;2023-04-09T03:19:27;101223.16;;;4.34;100.00
57900;BME280;60605;53.716;19.940;2023-04-09T03:24:30;101219.36;;;4.39;100.00
57900;BME280;60605;53.716;19.940;2023-04-09T03:29:32;101219.50;;;4.45;100.00
57900;BME280;60605;53.716;19.940;2023-04-09T03:34:34;101220.90;;;4.51;100.00
57900;BME280;60605;53.716;19.940;2023-04-09T03:39:36;101224.92;;;4.57;100.00
57900;BME280;60605;53.716;19.940;2023-04-09T03:44:38;101227.41;;;4.63;100.00
57900;BME280;60605;53.716;19.940;2023-04-09T03:49:40;101221.71;;;4.66;100.00
57900;BME280;60605;53.716;19.940;2023-04-09T03:54:41;101224.92;;;4.69;100.00
57900;BME280;60605;53.716;19.940;2023-04-09T03:59:44;101227.77;;;4.72;100.00
57900;BME280;60605;53.716;19.940;2023-04-09T04:04:46;101229.95;;;4.74;100.00
57900;BME280;60605;53.716;19.940;2023-04-09T04:09:48;101232.62;;;4.76;100.00
57900;BME280;60605;53.716;19.940;2023-04-09T04:14:49;101231.45;;;4.78;100.00
57900;BME280;60605;53.716;19.940;2023-04-09T04:19:52;101237.38;;;4.83;100.00
57900;BME280;60605;53.716;19.940;2023-04-09T04:24:53;101243.42;;;4.88;100.00
57900;BME280;60605;53.716;19.940;2023-04-09T04:29:56;101235.98;;;4.91;100.00
57900;BME280;60605;53.716;19.940;2023-04-09T04:34:59;101236.82;;;4.91;100.00
57900;BME280;60605;53.716;19.940;2023-04-09T04:40:01;101237.55;;;4.94;100.00
57900;BME280;60605;53.716;19.940;2023-04-09T04:45:06;101240.44;;;4.99;100.00
57900;BME280;60605;53.716;19.940;2023-04-09T04:50:09;101238.91;;;5.03;100.00
57900;BME280;60605;53.716;19.940;2023-04-09T04:55:11;101236.20;;;5.10;100.00
57900;BME280;60605;53.716;19.940;2023-04-09T05:00:13;101232.69;;;5.18;100.00
57900;BME280;60605;53.716;19.940;2023-04-09T05:05:15;101233.75;;;5.29;100.00
57900;BME280;60605;53.716;19.940;2023-04-09T05:10:17;101239.48;;;5.36;100.00
57900;BME280;60605;53.716;19.940;2023-04-09T05:15:19;101241.92;;;5.43;100.00
57900;BME280;60605;53.716;19.940;2023-04-09T05:20:21;101241.73;;;5.52;100.00
57900;BME280;60605;53.716;19.940;2023-04-09T05:25:23;101241.44;;;5.62;100.00
57900;BME280;60605;53.716;19.940;2023-04-09T05:30:25;101243.23;;;5.72;100.00
57900;BME280;60605;53.716;19.940;2023-04-09T05:35:27;101247.30;;;5.81;100.00
57900;BME280;60605;53.716;19.940;2023-04-09T05:40:29;101253.99;;;5.87;100.00
57900;BME280;60605;53.716;19.940;2023-04-09T05:45:31;101251.48;;;5.96;100.00
57900;BME280;60605;53.716;19.940;2023-04-09T05:50:33;101250.48;;;6.03;100.00
57900;BME280;60605;53.716;19.940;2023-04-09T05:55:52;101249.55;;;6.09;100.00
57900;BME280;60605;53.716;19.940;2023-04-09T06:00:54;101252.21;;;6.19;100.00
57900;BME280;60605;53.716;19.940;2023-04-09T06:05:56;101253.42;;;6.31;100.00
57900;BME280;60605;53.716;19.940;2023-04-09T06:10:58;101253.01;;;6.42;100.00
57900;BME280;60605;53.716;19.940;2023-04-09T06:16:05;101252.61;;;6.51;100.00
57900;BME280;60605;53.716;19.940;2023-04-09T06:21:08;101260.40;;;6.64;100.00
57900;BME280;60605;53.716;19.940;2023-04-09T06:26:10;101264.44;;;6.77;100.00
57900;BME280;60605;53.716;19.940;2023-04-09T06:31:12;101265.55;;;6.87;100.00
57900;BME280;60605;53.716;19.940;2023-04-09T06:36:14;101272.22;;;7.01;100.00
57900;BME280;60605;53.716;19.940;2023-04-09T06:41:22;101277.20;;;7.16;100.00
57900;BME280;60605;53.716;19.940;2023-04-09T06:46:24;101279.21;;;7.30;100.00
57900;BME280;60605;53.716;19.940;2023-04-09T06:51:26;101283.84;;;7.40;100.00
57900;BME280;60605;53.716;19.940;2023-04-09T06:56:28;101278.75;;;7.52;100.00
57900;BME280;60605;53.716;19.940;2023-04-09T07:01:30;101286.80;;;7.66;100.00
57900;BME280;60605;53.716;19.940;2023-04-09T07:06:33;101290.83;;;7.72;100.00
57900;BME280;60605;53.716;19.940;2023-04-09T07:11:35;101298.46;;;7.89;100.00
57900;BME280;60605;53.716;19.940;2023-04-09T07:16:37;101299.66;;;8.16;100.00
57900;BME280;60605;53.716;19.940;2023-04-09T07:21:40;101304.30;;;8.43;100.00
57900;BME280;60605;53.716;19.940;2023-04-09T07:26:42;101306.36;;;8.62;100.00
57900;BME280;60605;53.716;19.940;2023-04-09T07:31:44;101310.60;;;8.70;100.00
57900;BME280;60605;53.716;19.940;2023-04-09T07:36:46;101313.46;;;8.77;100.00
57900;BME280;60605;53.716;19.940;2023-04-09T07:41:48;101314.14;;;8.79;100.00
57900;BME280;60605;53.716;19.940;2023-04-09T07:46:49;101314.78;;;8.80;100.00
57900;BME280;60605;53.716;19.940;2023-04-09T07:51:51;101312.44;;;8.76;100.00
57900;BME280;60605;53.716;19.940;2023-04-09T07:56:54;101308.95;;;8.91;100.00
57900;BME280;60605;53.716;19.940;2023-04-09T08:01:57;101314.34;;;9.10;100.00
57900;BME280;60605;53.716;19.940;2023-04-09T08:06:59;101316.57;;;9.29;100.00
57900;BME280;60605;53.716;19.940;2023-04-09T08:12:02;101314.98;;;9.42;100.00
57900;BME280;60605;53.716;19.940;2023-04-09T08:17:04;101309.88;;;9.61;100.00
57900;BME280;60605;53.716;19.940;2023-04-09T08:22:06;101313.34;;;9.80;100.00
57900;BME280;60605;53.716;19.940;2023-04-09T08:27:08;101319.69;;;10.01;100.00
57900;BME280;60605;53.716;19.940;2023-04-09T08:32:11;101320.04;;;10.10;100.00
57900;BME280;60605;53.716;19.940;2023-04-09T08:37:13;101317.08;;;10.20;100.00
57900;BME280;60605;53.716;19.940;2023-04-09T08:42:15;101314.64;;;10.21;100.00
57900;BME280;60605;53.716;19.940;2023-04-09T08:47:19;101311.50;;;10.21;100.00
57900;BME280;60605;53.716;19.940;2023-04-09T08:52:32;101308.86;;;10.73;100.00
57900;BME280;60605;53.716;19.940;2023-04-09T08:57:38;101305.66;;;11.33;100.00
57900;BME280;60605;53.716;19.940;2023-04-09T09:03:05;101303.46;;;11.79;100.00
57900;BME280;60605;53.716;19.940;2023-04-09T09:08:10;101307.54;;;11.99;98.50
57900;BME280;60605;53.716;19.940;2023-04-09T09:13:26;101307.29;;;11.98;97.00
57900;BME280;60605;53.716;19.940;2023-04-09T09:18:37;101307.66;;;12.35;97.26
57900;BME280;60605;53.716;19.940;2023-04-09T09:23:40;101313.23;;;12.93;96.68
57900;BME280;60605;53.716;19.940;2023-04-09T09:28:48;101316.34;;;13.30;94.18
57900;BME280;60605;53.716;19.940;2023-04-09T09:33:50;101315.55;;;13.50;91.65
57900;BME280;60605;53.716;19.940;2023-04-09T09:38:55;101313.90;;;13.45;88.65
57900;BME280;60605;53.716;19.940;2023-04-09T09:43:58;101310.88;;;13.63;91.09
57900;BME280;60605;53.716;19.940;2023-04-09T09:49:01;101310.64;;;14.24;89.42
57900;BME280;60605;53.716;19.940;2023-04-09T09:54:06;101307.65;;;14.65;86.53
57900;BME280;60605;53.716;19.940;2023-04-09T09:59:21;101308.95;;;15.05;84.28
57900;BME280;60605;53.716;19.940;2023-04-09T10:04:27;101304.08;;;15.38;81.29
57900;BME280;60605;53.716;19.940;2023-04-09T10:09:34;101297.89;;;15.64;79.37
57900;BME280;60605;53.716;19.940;2023-04-09T10:14:39;101299.20;;;16.13;78.24
57900;BME280;60605;53.716;19.940;2023-04-09T10:19:48;101297.13;;;16.61;78.43
57900;BME280;60605;53.716;19.940;2023-04-09T10:24:55;101293.20;;;17.19;77.69
57900;BME280;60605;53.716;19.940;2023-04-09T10:29:58;101294.21;;;17.60;74.07
57900;BME280;60605;53.716;19.940;2023-04-09T10:35:02;101291.69;;;17.42;71.96
57900;BME280;60605;53.716;19.940;2023-04-09T10:40:06;101295.85;;;17.00;72.68
57900;BME280;60605;53.716;19.940;2023-04-09T10:45:13;101297.83;;;16.60;73.13
57900;BME280;60605;53.716;19.940;2023-04-09T10:50:20;101293.10;;;16.34;72.69
57900;BME280;60605;53.716;19.940;2023-04-09T11:00:41;101288.05;;;15.79;74.31
57900;BME280;60605;53.716;19.940;2023-04-09T11:06:07;101289.27;;;15.72;74.21
57900;BME280;60605;53.716;19.940;2023-04-09T11:11:11;101291.23;;;15.59;75.12
57900;BME280;60605;53.716;19.940;2023-04-09T11:16:13;101286.58;;;15.70;75.81
57900;BME280;60605;53.716;19.940;2023-04-09T11:21:27;101287.95;;;15.74;75.21
57900;BME280;60605;53.716;19.940;2023-04-09T11:26:36;101283.75;;;15.68;75.18
57900;BME280;60605;53.716;19.940;2023-04-09T11:31:42;101282.47;;;15.60;75.49
57900;BME280;60605;53.716;19.940;2023-04-09T11:36:48;101284.62;;;15.89;76.27
57900;BME280;60605;53.716;19.940;2023-04-09T11:41:50;101286.33;;;16.23;74.81
57900;BME280;60605;53.716;19.940;2023-04-09T11:46:53;101282.65;;;16.34;73.22
57900;BME280;60605;53.716;19.940;2023-04-09T11:51:55;101285.06;;;16.58;73.33
57900;BME280;60605;53.716;19.940;2023-04-09T11:57:04;101278.55;;;16.81;72.17
57900;BME280;60605;53.716;19.940;2023-04-09T12:02:06;101273.71;;;17.13;72.33
57900;BME280;60605;53.716;19.940;2023-04-09T12:07:09;101267.14;;;17.34;71.39
57900;BME280;60605;53.716;19.940;2023-04-09T12:12:17;101262.30;;;17.63;71.74
57900;BME280;60605;53.716;19.940;2023-04-09T12:17:20;101262.90;;;17.78;69.17
57900;BME280;60605;53.716;19.940;2023-04-09T12:22:22;101264.22;;;17.46;68.52
57900;BME280;60605;53.716;19.940;2023-04-09T12:27:24;101267.17;;;17.42;68.91
57900;BME280;60605;53.716;19.940;2023-04-09T12:32:25;101263.51;;;17.52;70.07
57900;BME280;60605;53.716;19.940;2023-04-09T12:37:29;101256.77;;;17.76;70.05
57900;BME280;60605;53.716;19.940;2023-04-09T12:42:31;101256.37;;;17.94;68.32
57900;BME280;60605;53.716;19.940;2023-04-09T12:47:33;101247.23;;;17.99;67.70
57900;BME280;60605;53.716;19.940;2023-04-09T12:52:36;101244.18;;;18.04;66.81
57900;BME280;60605;53.716;19.940;2023-04-09T12:57:40;101240.35;;;18.04;66.35
57900;BME280;60605;53.716;19.940;2023-04-09T13:02:43;101236.11;;;17.88;65.03
57900;BME280;60605;53.716;19.940;2023-04-09T13:07:45;101227.75;;;17.74;66.33
57900;BME280;60605;53.716;19.940;2023-04-09T13:12:47;101224.98;;;17.88;66.16
57900;BME280;60605;53.716;19.940;2023-04-09T13:17:49;101219.30;;;18.05;66.30
57900;BME280;60605;53.716;19.940;2023-04-09T13:22:51;101218.33;;;18.08;65.33
57900;BME280;60605;53.716;19.940;2023-04-09T13:27:53;101216.73;;;18.37;65.62
57900;BME280;60605;53.716;19.940;2023-04-09T13:32:55;101212.88;;;18.67;64.83
57900;BME280;60605;53.716;19.940;2023-04-09T13:37:57;101210.67;;;18.72;63.06
57900;BME280;60605;53.716;19.940;2023-04-09T13:42:59;101206.54;;;18.30;62.62
57900;BME280;60605;53.716;19.940;2023-04-09T13:48:01;101202.91;;;18.11;63.70
57900;BME280;60605;53.716;19.940;2023-04-09T13:53:03;101201.23;;;18.01;63.08
57900;BME280;60605;53.716;19.940;2023-04-09T13:58:05;101198.02;;;17.95;62.90
57900;BME280;60605;53.716;19.940;2023-04-09T14:03:08;101193.08;;;18.06;63.54
57900;BME280;60605;53.716;19.940;2023-04-09T14:08:10;101191.57;;;18.20;65.27
57900;BME280;60605;53.716;19.940;2023-04-09T14:13:12;101193.09;;;18.27;66.57
57900;BME280;60605;53.716;19.940;2023-04-09T14:18:14;101187.84;;;18.36;67.30
57900;BME280;60605;53.716;19.940;2023-04-09T14:23:16;101185.78;;;18.40;66.78
57900;BME280;60605;53.716;19.940;2023-04-09T14:28:18;101184.86;;;18.37;66.66
57900;BME280;60605;53.716;19.940;2023-04-09T14:33:20;101182.91;;;18.26;66.55
57900;BME280;60605;53.716;19.940;2023-04-09T14:38:22;101174.92;;;18.02;66.92
57900;BME280;60605;53.716;19.940;2023-04-09T14:43:27;101170.60;;;17.79;67.67
57900;BME280;60605;53.716;19.940;2023-04-09T14:48:28;101167.64;;;17.58;68.32
57900;BME280;60605;53.716;19.940;2023-04-09T14:53:30;101160.77;;;17.43;68.87
57900;BME280;60605;53.716;19.940;2023-04-09T14:58:32;101161.16;;;17.30;69.06
57900;BME280;60605;53.716;19.940;2023-04-09T15:03:34;101160.36;;;17.16;69.48
57900;BME280;60605;53.716;19.940;2023-04-09T15:08:37;101157.85;;;17.01;69.76
57900;BME280;60605;53.716;19.940;2023-04-09T15:13:40;101156.34;;;16.83;69.83
57900;BME280;60605;53.716;19.940;2023-04-09T15:18:42;101159.58;;;16.67;70.39
57900;BME280;60605;53.716;19.940;2023-04-09T15:23:44;101163.05;;;16.54;70.45
57900;BME280;60605;53.716;19.940;2023-04-09T15:28:47;101169.92;;;16.46;71.03
57900;BME280;60605;53.716;19.940;2023-04-09T15:33:49;101171.34;;;16.41;71.15
57900;BME280;60605;53.716;19.940;2023-04-09T15:38:52;101166.83;;;16.26;70.88
57900;BME280;60605;53.716;19.940;2023-04-09T15:43:55;101169.17;;;16.08;71.16
57900;BME280;60605;53.716;19.940;2023-04-09T15:48:57;101175.27;;;15.90;70.96
57900;BME280;60605;53.716;19.940;2023-04-09T15:53:59;101175.95;;;15.69;70.83
57900;BME280;60605;53.716;19.940;2023-04-09T15:59:01;101180.73;;;15.50;70.85
57900;BME280;60605;53.716;19.940;2023-04-09T16:04:05;101185.41;;;15.38;71.27
57900;BME280;60605;53.716;19.940;2023-04-09T16:09:09;101183.88;;;15.28;71.55
57900;BME280;60605;53.716;19.940;2023-04-09T16:14:11;101193.52;;;15.09;71.51
57900;BME280;60605;53.716;19.940;2023-04-09T16:19:13;101199.79;;;14.83;71.60
57900;BME280;60605;53.716;19.940;2023-04-09T16:24:15;101203.25;;;14.60;72.30
57900;BME280;60605;53.716;19.940;2023-04-09T16:29:16;101205.51;;;14.38;73.04
57900;BME280;60605;53.716;19.940;2023-04-09T16:34:19;101205.91;;;14.13;73.34
57900;BME280;60605;53.716;19.940;2023-04-09T16:39:21;101207.31;;;13.88;73.38
57900;BME280;60605;53.716;19.940;2023-04-09T16:44:24;101219.52;;;13.66;73.92
57900;BME280;60605;53.716;19.940;2023-04-09T16:49:26;101225.36;;;13.47;74.42
57900;BME280;60605;53.716;19.940;2023-04-09T16:54:28;101226.16;;;13.30;75.16
57900;BME280;60605;53.716;19.940;2023-04-09T16:59:31;101230.02;;;13.14;75.62
57900;BME280;60605;53.716;19.940;2023-04-09T17:04:34;101237.73;;;12.97;76.12
57900;BME280;60605;53.716;19.940;2023-04-09T17:09:38;101237.27;;;12.81;76.66
57900;BME280;60605;53.716;19.940;2023-04-09T17:14:40;101240.83;;;12.66;77.35
57900;BME280;60605;53.716;19.940;2023-04-09T17:19:43;101246.13;;;12.52;78.03
57900;BME280;60605;53.716;19.940;2023-04-09T17:24:46;101253.14;;;12.38;78.95
57900;BME280;60605;53.716;19.940;2023-04-09T17:29:48;101256.63;;;12.21;79.97
57900;BME280;60605;53.716;19.940;2023-04-09T17:34:50;101261.93;;;12.01;80.77
57900;BME280;60605;53.716;19.940;2023-04-09T17:39:52;101268.05;;;11.79;81.50
57900;BME280;60605;53.716;19.940;2023-04-09T17:44:55;101270.48;;;11.57;82.35
57900;BME280;60605;53.716;19.940;2023-04-09T17:49:58;101280.23;;;11.38;82.93
57900;BME280;60605;53.716;19.940;2023-04-09T17:55:00;101285.89;;;11.22;83.66
57900;BME280;60605;53.716;19.940;2023-04-09T18:00:03;101287.73;;;11.06;84.14
57900;BME280;60605;53.716;19.940;2023-04-09T18:05:07;101298.43;;;10.85;84.26
57900;BME280;60605;53.716;19.940;2023-04-09T18:10:10;101302.26;;;10.65;84.65
57900;BME280;60605;53.716;19.940;2023-04-09T18:15:13;101306.59;;;10.45;85.02
57900;BME280;60605;53.716;19.940;2023-04-09T18:20:16;101312.96;;;10.24;85.61
57900;BME280;60605;53.716;19.940;2023-04-09T18:25:19;101314.12;;;10.06;86.09
57900;BME280;60605;53.716;19.940;2023-04-09T18:30:22;101317.74;;;9.90;86.78
57900;BME280;60605;53.716;19.940;2023-04-09T18:35:27;101324.48;;;9.75;87.44
57900;BME280;60605;53.716;19.940;2023-04-09T18:40:28;101331.56;;;9.65;88.31
57900;BME280;60605;53.716;19.940;2023-04-09T18:45:31;101336.76;;;9.58;88.65
57900;BME280;60605;53.716;19.940;2023-04-09T18:50:33;101342.30;;;9.55;89.05
57900;BME280;60605;53.716;19.940;2023-04-09T18:55:36;101344.77;;;9.55;89.20
57900;BME280;60605;53.716;19.940;2023-04-09T19:00:38;101347.38;;;9.56;89.29
57900;BME280;60605;53.716;19.940;2023-04-09T19:05:40;101347.30;;;9.55;89.16
57900;BME280;60605;53.716;19.940;2023-04-09T19:10:43;101347.28;;;9.53;89.05
57900;BME280;60605;53.716;19.940;2023-04-09T19:15:48;101341.51;;;9.49;89.03
57900;BME280;60605;53.716;19.940;2023-04-09T19:20:51;101337.44;;;9.45;89.01
57900;BME280;60605;53.716;19.940;2023-04-09T19:25:54;101335.08;;;9.36;88.95
57900;BME280;60605;53.716;19.940;2023-04-09T19:30:57;101340.40;;;9.25;88.94
57900;BME280;60605;53.716;19.940;2023-04-09T19:36:00;101341.02;;;9.12;89.03
57900;BME280;60605;53.716;19.940;2023-04-09T19:41:03;101339.91;;;8.99;89.15
57900;BME280;60605;53.716;19.940;2023-04-09T19:46:05;101344.48;;;8.86;89.19
57900;BME280;60605;53.716;19.940;2023-04-09T19:51:16;101350.72;;;8.72;89.47
57900;BME280;60605;53.716;19.940;2023-04-09T19:56:19;101351.16;;;8.59;89.62
57900;BME280;60605;53.716;19.940;2023-04-09T20:01:22;101351.35;;;8.49;89.69
57900;BME280;60605;53.716;19.940;2023-04-09T20:06:24;101351.36;;;8.39;89.91
57900;BME280;60605;53.716;19.940;2023-04-09T20:11:29;101355.58;;;8.31;90.09
57900;BME280;60605;53.716;19.940;2023-04-09T20:16:31;101356.23;;;8.22;90.45
57900;BME280;60605;53.716;19.940;2023-04-09T20:21:33;101357.46;;;8.12;90.86
57900;BME280;60605;53.716;19.940;2023-04-09T20:26:35;101352.16;;;8.02;91.21
57900;BME280;60605;53.716;19.940;2023-04-09T20:31:38;101350.90;;;7.92;91.49
57900;BME280;60605;53.716;19.940;2023-04-09T20:36:41;101351.27;;;7.82;92.10
57900;BME280;60605;53.716;19.940;2023-04-09T20:41:44;101348.30;;;7.71;92.72
57900;BME280;60605;53.716;19.940;2023-04-09T20:46:46;101350.98;;;7.61;93.19
57900;BME280;60605;53.716;19.940;2023-04-09T20:51:48;101355.91;;;7.52;93.60
57900;BME280;60605;53.716;19.940;2023-04-09T20:56:50;101353.41;;;7.42;93.97
57900;BME280;60605;53.716;19.940;2023-04-09T21:01:53;101357.63;;;7.32;94.46
57900;BME280;60605;53.716;19.940;2023-04-09T21:06:57;101357.23;;;7.23;94.87
57900;BME280;60605;53.716;19.940;2023-04-09T21:11:59;101351.48;;;7.16;95.36
57900;BME280;60605;53.716;19.940;2023-04-09T21:17:03;101352.66;;;7.09;95.82
57900;BME280;60605;53.716;19.940;2023-04-09T21:22:05;101351.08;;;7.01;96.02
57900;BME280;60605;53.716;19.940;2023-04-09T21:27:07;101352.44;;;6.94;96.58
57900;BME280;60605;53.716;19.940;2023-04-09T21:32:10;101346.89;;;6.89;97.04
57900;BME280;60605;53.716;19.940;2023-04-09T21:37:12;101349.67;;;6.85;97.28
57900;BME280;60605;53.716;19.940;2023-04-09T21:42:15;101353.17;;;6.80;97.48
57900;BME280;60605;53.716;19.940;2023-04-09T21:47:18;101351.86;;;6.76;97.64
57900;BME280;60605;53.716;19.940;2023-04-09T21:52:20;101351.74;;;6.73;97.96
57900;BME280;60605;53.716;19.940;2023-04-09T21:57:23;101349.57;;;6.68;98.17
57900;BME280;60605;53.716;19.940;2023-04-09T22:02:26;101349.19;;;6.63;98.40
57900;BME280;60605;53.716;19.940;2023-04-09T22:07:30;101347.55;;;6.59;98.87
57900;BME280;60605;53.716;19.940;2023-04-09T22:12:32;101342.53;;;6.54;99.28
57900;BME280;60605;53.716;19.940;2023-04-09T22:17:34;101338.54;;;6.47;99.49
57900;BME280;60605;53.716;19.940;2023-04-09T22:22:36;101334.17;;;6.41;99.66
57900;BME280;60605;53.716;19.940;2023-04-09T22:27:39;101330.61;;;6.36;99.93
57900;BME280;60605;53.716;19.940;2023-04-09T22:32:40;101329.52;;;6.31;100.00
57900;BME280;60605;53.716;19.940;2023-04-09T22:37:44;101328.89;;;6.27;100.00
57900;BME280;60605;53.716;19.940;2023-04-09T22:42:47;101324.56;;;6.23;100.00
57900;BME280;60605;53.716;19.940;2023-04-09T22:47:49;101322.83;;;6.14;100.00
57900;BME280;60605;53.716;19.940;2023-04-09T22:52:51;101324.58;;;6.06;100.00
57900;BME280;60605;53.716;19.940;2023-04-09T22:57:54;101322.70;;;5.99;100.00
57900;BME280;60605;53.716;19.940;2023-04-09T23:02:59;101327.40;;;5.93;100.00
57900;BME280;60605;53.716;19.940;2023-04-09T23:08:02;101324.57;;;5.84;100.00
57900;BME280;60605;53.716;19.940;2023-04-09T23:13:04;101329.44;;;5.74;100.00
57900;BME280;60605;53.716;19.940;2023-04-09T23:18:06;101330.44;;;5.64;100.00
57900;BME280;60605;53.716;19.940;2023-04-09T23:23:07;101333.42;;;5.53;100.00
57900;BME280;60605;53.716;19.940;2023-04-09T23:28:09;101333.66;;;5.43;100.00
57900;BME280;60605;53.716;19.940;2023-04-09T23:33:13;101334.66;;;5.36;100.00
57900;BME280;60605;53.716;19.940;2023-04-09T23:38:15;101328.96;;;5.30;100.00
57900;BME280;60605;53.716;19.940;2023-04-09T23:43:18;101332.98;;;5.26;100.00
57900;BME280;60605;53.716;19.940;2023-04-09T23:48:20;101331.34;;;5.21;100.00
57900;BME280;60605;53.716;19.940;2023-04-09T23:53:22;101334.08;;;5.17;100.00
57900;BME280;60605;53.716;19.940;2023-04-09T23:58:24;101334.88;;;5.12;100.00
